createdAt,value
2019-05-21T00:02:08.829Z,99939.49
2019-05-21T00:04:37.160Z,99944.90
2019-05-21T00:07:05.464Z,99940.39
2019-05-21T00:09:33.766Z,99937.66
2019-05-21T00:14:48.691Z,99933.16
2019-05-21T00:17:17.023Z,99934.17
2019-05-21T00:19:45.427Z,99930.87
2019-05-21T00:22:13.750Z,99929.42
2019-05-21T00:24:42.125Z,99924.93
2019-05-21T00:27:10.454Z,99927.52
2019-05-21T00:30:15.499Z,99919.64
2019-05-21T00:33:20.799Z,99921.37
2019-05-21T00:36:27.547Z,99916.89
2019-05-21T00:39:32.799Z,99919.63
2019-05-21T00:42:01.788Z,99911.77
2019-05-21T00:44:39.623Z,99915.34
2019-05-21T00:47:09.258Z,99911.77
2019-05-21T00:49:37.571Z,99912.38
2019-05-21T00:52:08.694Z,99910.00
2019-05-21T00:54:36.596Z,99912.45
2019-05-21T00:57:05.032Z,99924.56
2019-05-21T00:59:33.359Z,99919.74
2019-05-21T01:02:01.676Z,99920.41
2019-05-21T01:04:30.039Z,99922.25
2019-05-21T01:06:58.347Z,99923.39
2019-05-21T01:09:26.714Z,99919.47
2019-05-21T01:11:55.374Z,99927.00
2019-05-21T01:14:23.669Z,99934.63
2019-05-21T01:16:51.986Z,99919.47
2019-05-21T01:19:20.291Z,99926.10
2019-05-21T01:21:48.586Z,99916.80
2019-05-21T01:24:17.034Z,99921.19
2019-05-21T01:26:45.330Z,99914.44
2019-05-21T01:29:13.649Z,99916.58
2019-05-21T01:31:42.217Z,99909.23
2019-05-21T01:34:11.565Z,99916.07
2019-05-21T01:36:40.012Z,99920.83
2019-05-21T01:39:08.369Z,99917.36
2019-05-21T01:41:36.675Z,99914.83
2019-05-21T01:44:05.050Z,99914.20
2019-05-21T01:46:33.347Z,99912.06
2019-05-21T01:49:01.652Z,99917.18
2019-05-21T01:51:29.978Z,99923.47
2019-05-21T01:53:58.288Z,99920.73
2019-05-21T01:56:26.615Z,99928.77
2019-05-21T01:58:54.975Z,99924.66
2019-05-21T02:01:23.273Z,99921.25
2019-05-21T02:03:51.608Z,99924.84
2019-05-21T02:06:19.950Z,99934.95
2019-05-21T02:08:48.589Z,99939.70
2019-05-21T02:11:16.888Z,99940.83
2019-05-21T02:13:45.195Z,99941.76
2019-05-21T02:16:13.608Z,99946.52
2019-05-21T02:18:42.022Z,99940.87
2019-05-21T02:21:10.789Z,99941.81
2019-05-21T02:23:39.097Z,99943.17
2019-05-21T02:26:07.429Z,99945.48
2019-05-21T02:28:35.725Z,99948.01
2019-05-21T02:31:04.189Z,99948.43
2019-05-21T02:33:32.507Z,99939.75
2019-05-21T02:36:00.822Z,99945.80
2019-05-21T02:38:29.429Z,99954.73
2019-05-21T02:40:57.738Z,99962.25
2019-05-21T02:43:26.063Z,99962.59
2019-05-21T02:45:54.358Z,99965.33
2019-05-21T02:48:22.952Z,99964.01
2019-05-21T02:50:51.344Z,99956.64
2019-05-21T02:53:19.663Z,99953.61
2019-05-21T02:55:48.293Z,99956.31
2019-05-21T02:58:16.584Z,99964.26
2019-05-21T03:01:01.742Z,99962.76
2019-05-21T03:03:31.785Z,99954.48
2019-05-21T03:06:13.212Z,99963.27
2019-05-21T03:08:30.098Z,99967.17
2019-05-21T03:10:58.764Z,99970.45
2019-05-21T03:13:27.051Z,99972.59
2019-05-21T03:15:55.381Z,99982.77
2019-05-21T03:18:23.704Z,99976.02
2019-05-21T03:20:52.022Z,99966.52
2019-05-21T03:23:20.305Z,99983.06
2019-05-21T03:25:48.630Z,99974.30
2019-05-21T03:28:17.183Z,99976.27
2019-05-21T03:30:45.527Z,99978.02
2019-05-21T03:33:14.381Z,99977.66
2019-05-21T03:35:42.722Z,99978.48
2019-05-21T03:38:11.032Z,99982.88
2019-05-21T03:40:39.357Z,99986.05
2019-05-21T03:43:07.662Z,99982.50
2019-05-21T03:45:36.057Z,99982.38
2019-05-21T03:48:04.752Z,99985.02
2019-05-21T03:50:33.063Z,99993.99
2019-05-21T03:53:01.367Z,99991.64
2019-05-21T03:55:29.670Z,99994.13
2019-05-21T03:57:57.985Z,99991.52
2019-05-21T04:00:26.299Z,99996.39
2019-05-21T04:02:55.024Z,99999.39
2019-05-21T04:05:24.566Z,100007.24
2019-05-21T04:07:53.052Z,100007.93
2019-05-21T04:10:21.555Z,99997.72
2019-05-21T04:13:08.876Z,99995.75
2019-05-21T04:15:40.567Z,99999.42
2019-05-21T04:18:10.770Z,99989.03
2019-05-21T04:20:39.081Z,99985.70
2019-05-21T04:23:07.637Z,99991.88
2019-05-21T04:25:35.939Z,100001.66
2019-05-21T04:28:04.287Z,100001.97
2019-05-21T04:30:32.579Z,99997.39
2019-05-21T04:33:01.154Z,99995.55
2019-05-21T04:35:29.926Z,99992.09
2019-05-21T04:37:58.245Z,99985.64
2019-05-21T04:40:26.904Z,99988.30
2019-05-21T04:42:55.219Z,99994.53
2019-05-21T04:45:23.533Z,99998.00
2019-05-21T04:47:52.134Z,99995.22
2019-05-21T04:50:20.455Z,99999.34
2019-05-21T04:52:48.784Z,99996.69
2019-05-21T04:55:17.102Z,100005.07
2019-05-21T04:57:45.411Z,100001.09
2019-05-21T05:00:13.849Z,100009.17
2019-05-21T05:02:42.181Z,100009.34
2019-05-21T05:05:10.737Z,100013.66
2019-05-21T05:07:39.378Z,100011.95
2019-05-21T05:10:07.981Z,100013.00
2019-05-21T05:12:36.645Z,100018.55
2019-05-21T05:15:06.611Z,100025.09
2019-05-21T05:17:34.952Z,100029.00
2019-05-21T05:20:03.903Z,100025.16
2019-05-21T05:22:32.219Z,100030.02
2019-05-21T05:25:00.546Z,100023.52
2019-05-21T05:27:28.878Z,100037.20
2019-05-21T05:29:57.193Z,100035.06
2019-05-21T05:32:25.768Z,100030.83
2019-05-21T05:34:54.069Z,100035.45
2019-05-21T05:37:24.399Z,100036.81
2019-05-21T05:39:52.696Z,100038.91
2019-05-21T05:42:21.020Z,100035.70
2019-05-21T05:44:49.339Z,100037.33
2019-05-21T05:47:17.647Z,100040.92
2019-05-21T05:49:47.622Z,100040.62
2019-05-21T05:52:16.214Z,100042.45
2019-05-21T05:54:44.532Z,100041.25
2019-05-21T05:57:12.837Z,100043.56
2019-05-21T05:59:41.170Z,100049.20
2019-05-21T06:02:09.576Z,100047.67
2019-05-21T06:04:37.896Z,100042.11
2019-05-21T06:07:06.509Z,100054.88
2019-05-21T06:09:34.854Z,100053.18
2019-05-21T06:12:03.305Z,100051.34
2019-05-21T06:14:31.654Z,100057.59
2019-05-21T06:17:00.043Z,100056.88
2019-05-21T06:19:28.350Z,100061.66
2019-05-21T06:21:56.675Z,100060.47
2019-05-21T06:24:24.976Z,100059.81
2019-05-21T06:26:53.315Z,100073.50
2019-05-21T06:29:21.603Z,100071.02
2019-05-21T06:31:49.930Z,100075.50
2019-05-21T06:34:18.236Z,100074.74
2019-05-21T06:36:46.850Z,100084.02
2019-05-21T06:39:15.243Z,100096.17
2019-05-21T06:41:43.552Z,100104.46
2019-05-21T06:44:11.884Z,100106.91
2019-05-21T06:46:40.206Z,100120.80
2019-05-21T06:49:08.830Z,100114.68
2019-05-21T06:51:37.144Z,100117.71
2019-05-21T06:54:05.546Z,100113.36
2019-05-21T06:56:34.001Z,100115.14
2019-05-21T06:59:03.812Z,100118.60
2019-05-21T07:01:32.153Z,100122.20
2019-05-21T07:04:00.537Z,100126.61
2019-05-21T07:06:28.916Z,100125.81
2019-05-21T07:08:57.829Z,100121.84
2019-05-21T07:11:26.166Z,100117.10
2019-05-21T07:13:54.553Z,100118.17
2019-05-21T07:16:22.891Z,100130.45
2019-05-21T07:18:51.245Z,100124.69
2019-05-21T07:21:19.521Z,100129.66
2019-05-21T07:23:47.851Z,100130.42
2019-05-21T07:26:16.471Z,100133.89
2019-05-21T07:28:44.793Z,100129.39
2019-05-21T07:31:17.238Z,100137.80
2019-05-21T07:33:43.119Z,100140.35
2019-05-21T07:36:11.521Z,100140.07
2019-05-21T07:38:52.691Z,100139.81
2019-05-21T07:41:10.228Z,100137.98
2019-05-21T07:43:38.564Z,100141.45
2019-05-21T07:46:06.870Z,100144.97
2019-05-21T07:48:35.200Z,100149.08
2019-05-21T07:51:03.512Z,100152.33
2019-05-21T07:53:31.983Z,100154.55
2019-05-21T07:56:00.407Z,100164.73
2019-05-21T07:58:28.740Z,100167.51
2019-05-21T08:01:00.997Z,100161.08
2019-05-21T08:03:27.096Z,100172.18
2019-05-21T08:05:55.682Z,100178.22
2019-05-21T08:08:23.995Z,100179.89
2019-05-21T08:10:52.331Z,100182.63
2019-05-21T08:13:20.668Z,100191.36
2019-05-21T08:15:48.997Z,100200.02
2019-05-21T08:18:17.309Z,100203.26
2019-05-21T08:20:45.585Z,100211.91
2019-05-21T08:23:13.926Z,100211.91
2019-05-21T08:25:42.238Z,100212.49
2019-05-21T08:28:10.784Z,100210.53
2019-05-21T08:30:39.104Z,100206.41
2019-05-21T08:33:07.828Z,100210.70
2019-05-21T08:35:36.509Z,100207.63
2019-05-21T08:38:06.719Z,100209.00
2019-05-21T08:40:35.403Z,100213.97
2019-05-21T08:43:03.713Z,100212.39
2019-05-21T08:45:32.355Z,100214.36
2019-05-21T08:48:00.688Z,100223.56
2019-05-21T08:50:28.993Z,100227.19
2019-05-21T08:52:57.320Z,100218.38
2019-05-21T08:55:25.735Z,100220.66
2019-05-21T08:58:06.365Z,100222.83
2019-05-21T09:00:26.253Z,100231.47
2019-05-21T09:02:54.590Z,100221.38
2019-05-21T09:05:23.186Z,100222.83
2019-05-21T09:07:53.770Z,100221.14
2019-05-21T09:10:21.714Z,100222.67
2019-05-21T09:12:50.051Z,100233.67
2019-05-21T09:15:19.160Z,100231.95
2019-05-21T09:17:47.735Z,100229.05
2019-05-21T09:20:16.787Z,100222.64
2019-05-21T09:22:45.155Z,100226.19
2019-05-21T09:25:13.682Z,100228.26
2019-05-21T09:27:42.011Z,100234.59
2019-05-21T09:30:11.385Z,100231.38
2019-05-21T09:32:39.689Z,100237.23
2019-05-21T09:35:09.413Z,100245.41
2019-05-21T09:37:38.085Z,100248.49
2019-05-21T09:40:07.569Z,100245.38
2019-05-21T09:42:35.872Z,100253.47
2019-05-21T09:45:06.404Z,100266.45
2019-05-21T09:47:34.986Z,100273.30
2019-05-21T09:50:05.602Z,100279.11
2019-05-21T09:52:33.989Z,100274.31
2019-05-21T09:55:02.652Z,100274.33
2019-05-21T09:57:35.686Z,100273.21
2019-05-21T10:00:16.305Z,100279.90
2019-05-21T10:02:44.641Z,100280.58
2019-05-21T10:05:13.174Z,100284.51
2019-05-21T10:07:41.594Z,100280.15
2019-05-21T10:10:10.521Z,100290.45
2019-05-21T10:12:38.840Z,100281.55
2019-05-21T10:15:07.815Z,100295.05
2019-05-21T10:17:36.119Z,100293.47
2019-05-21T10:20:05.989Z,100299.04
2019-05-21T10:22:34.300Z,100300.29
2019-05-21T10:25:02.630Z,100302.73
2019-05-21T10:27:31.019Z,100302.19
2019-05-21T10:29:59.703Z,100307.84
2019-05-21T10:32:28.106Z,100312.39
2019-05-21T10:34:56.421Z,100313.64
2019-05-21T10:37:25.053Z,100313.34
2019-05-21T10:39:53.649Z,100315.22
2019-05-21T10:42:21.955Z,100318.59
2019-05-21T10:44:50.314Z,100315.81
2019-05-21T10:47:18.643Z,100323.02
2019-05-21T10:49:47.235Z,100328.55
2019-05-21T10:52:15.551Z,100334.67
2019-05-21T10:54:43.856Z,100331.36
2019-05-21T10:57:12.188Z,100332.69
2019-05-21T10:59:40.485Z,100331.80
2019-05-21T11:02:13.153Z,100340.45
2019-05-21T11:04:49.034Z,100346.75
2019-05-21T11:07:18.238Z,100352.58
2019-05-21T11:09:46.560Z,100358.91
2019-05-21T11:12:14.974Z,100355.36
2019-05-21T11:14:43.292Z,100363.25
2019-05-21T11:17:12.883Z,100364.27
2019-05-21T11:19:41.263Z,100366.23
2019-05-21T11:22:09.580Z,100375.91
2019-05-21T11:24:38.012Z,100373.82
2019-05-21T11:27:06.503Z,100372.62
2019-05-21T11:29:34.808Z,100371.59
2019-05-21T11:32:03.139Z,100368.77
2019-05-21T11:34:31.464Z,100373.48
2019-05-21T11:36:59.790Z,100372.97
2019-05-21T11:39:28.086Z,100375.63
2019-05-21T11:41:56.413Z,100370.83
2019-05-21T11:44:24.738Z,100381.58
2019-05-21T11:46:53.297Z,100376.17
2019-05-21T11:49:21.608Z,100382.42
2019-05-21T11:51:49.936Z,100382.14
2019-05-21T11:54:18.502Z,100383.52
2019-05-21T11:56:47.117Z,100384.34
2019-05-21T11:59:15.790Z,100372.94
2019-05-21T12:01:44.611Z,100376.84
2019-05-21T12:04:12.875Z,100380.66
2019-05-21T12:06:41.181Z,100384.05
2019-05-21T12:09:09.508Z,100391.45
2019-05-21T12:11:37.968Z,100398.14
2019-05-21T12:14:06.294Z,100404.69
2019-05-21T12:16:35.167Z,100406.27
2019-05-21T12:19:07.578Z,100413.68
2019-05-21T12:21:33.833Z,100415.34
2019-05-21T12:24:02.641Z,100427.40
2019-05-21T12:26:31.202Z,100426.89
2019-05-21T12:28:59.773Z,100426.84
2019-05-21T12:31:28.121Z,100433.78
2019-05-21T12:33:56.474Z,100432.25
2019-05-21T12:36:24.896Z,100435.93
2019-05-21T12:38:53.182Z,100444.66
2019-05-21T12:41:21.532Z,100448.27
2019-05-21T12:43:49.844Z,100450.23
2019-05-21T12:46:18.159Z,100442.06
2019-05-21T12:48:46.476Z,100447.63
2019-05-21T12:51:15.096Z,100452.05
2019-05-21T12:53:43.779Z,100450.13
2019-05-21T12:56:12.093Z,100451.89
2019-05-21T12:58:40.426Z,100458.97
2019-05-21T13:01:08.753Z,100462.02
2019-05-21T13:03:37.061Z,100456.98
2019-05-21T13:06:05.459Z,100461.48
2019-05-21T13:08:33.877Z,100466.08
2019-05-21T13:11:02.181Z,100468.52
2019-05-21T13:13:30.554Z,100474.50
2019-05-21T13:15:58.891Z,100471.32
2019-05-21T13:18:27.198Z,100474.71
2019-05-21T13:20:55.518Z,100482.00
2019-05-21T13:23:23.831Z,100480.11
2019-05-21T13:25:52.166Z,100481.52
2019-05-21T13:28:20.784Z,100488.94
2019-05-21T13:30:49.193Z,100491.73
2019-05-21T13:33:19.580Z,100494.44
2019-05-21T13:35:47.566Z,100492.38
2019-05-21T13:38:15.904Z,100503.88
2019-05-21T13:40:44.373Z,100502.50
2019-05-21T13:43:12.829Z,100505.97
2019-05-21T13:45:41.175Z,100500.43
2019-05-21T13:48:09.754Z,100504.38
2019-05-21T13:50:38.080Z,100509.30
2019-05-21T13:53:06.665Z,100514.59
2019-05-21T13:55:35.511Z,100507.20
2019-05-21T13:58:04.010Z,100514.37
2019-05-21T14:00:33.982Z,100514.55
2019-05-21T14:03:02.818Z,100508.24
2019-05-21T14:05:31.207Z,100514.47
2019-05-21T14:07:59.531Z,100515.57
2019-05-21T14:10:28.115Z,100512.81
2019-05-21T14:12:56.432Z,100518.65
2019-05-21T14:15:24.742Z,100518.31
2019-05-21T14:17:53.368Z,100518.70
2019-05-21T14:20:21.792Z,100522.91
2019-05-21T14:22:50.159Z,100524.63
2019-05-21T14:25:18.475Z,100530.43
2019-05-21T14:27:46.810Z,100537.37
2019-05-21T14:30:15.563Z,100539.27
2019-05-21T14:32:43.894Z,100539.85
2019-05-21T14:35:12.205Z,100544.52
2019-05-21T14:37:40.528Z,100542.88
2019-05-21T14:40:10.363Z,100546.63
2019-05-21T14:42:39.029Z,100540.41
2019-05-21T14:45:08.544Z,100539.73
2019-05-21T14:47:37.205Z,100546.55
2019-05-21T14:50:07.145Z,100541.95
2019-05-21T14:52:35.467Z,100543.36
2019-05-21T14:55:05.625Z,100550.85
2019-05-21T14:57:34.590Z,100561.75
2019-05-21T15:00:05.382Z,100560.15
2019-05-21T15:02:37.031Z,100562.70
2019-05-21T15:05:05.589Z,100561.23
2019-05-21T15:07:34.268Z,100560.05
2019-05-21T15:10:02.869Z,100559.27
2019-05-21T15:12:31.256Z,100557.77
2019-05-21T15:14:59.590Z,100561.23
2019-05-21T15:17:28.005Z,100556.88
2019-05-21T15:19:57.969Z,100557.45
2019-05-21T15:22:26.280Z,100559.02
2019-05-21T15:24:54.847Z,100561.69
2019-05-21T15:27:23.550Z,100563.31
2019-05-21T15:29:51.898Z,100560.05
2019-05-21T15:32:20.190Z,100560.62
2019-05-21T15:34:48.527Z,100561.80
2019-05-21T15:37:16.877Z,100561.02
2019-05-21T15:39:45.178Z,100571.07
2019-05-21T15:42:13.543Z,100565.24
2019-05-21T15:44:41.837Z,100565.59
2019-05-21T15:47:10.165Z,100566.97
2019-05-21T15:49:38.471Z,100566.11
2019-05-21T15:52:06.820Z,100566.23
2019-05-21T15:54:35.129Z,100568.55
2019-05-21T15:57:03.456Z,100566.84
2019-05-21T15:59:31.764Z,100571.00
2019-05-21T16:02:00.095Z,100575.72
2019-05-21T16:04:28.442Z,100569.71
2019-05-21T16:06:56.769Z,100580.14
2019-05-21T16:09:25.470Z,100580.13
2019-05-21T16:11:54.151Z,100584.98
2019-05-21T16:14:22.476Z,100583.14
2019-05-21T16:16:50.790Z,100596.23
2019-05-21T16:19:19.117Z,100584.52
2019-05-21T16:21:47.765Z,100589.78
2019-05-21T16:24:16.090Z,100597.45
2019-05-21T16:26:44.396Z,100594.30
2019-05-21T16:29:12.835Z,100594.12
2019-05-21T16:31:41.147Z,100592.42
2019-05-21T16:34:09.768Z,100589.89
2019-05-21T16:36:38.073Z,100598.88
2019-05-21T16:39:07.811Z,100590.63
2019-05-21T16:41:44.703Z,100594.97
2019-05-21T16:44:06.131Z,100592.30
2019-05-21T16:46:34.834Z,100592.06
2019-05-21T16:49:03.312Z,100597.31
2019-05-21T16:51:32.000Z,100601.91
2019-05-21T16:54:00.311Z,100602.62
2019-05-21T16:56:28.645Z,100601.97
2019-05-21T16:58:56.937Z,100605.00
2019-05-21T17:01:25.512Z,100596.20
2019-05-21T17:03:59.979Z,100595.32
2019-05-21T17:06:23.961Z,100597.27
2019-05-21T17:08:52.282Z,100603.29
2019-05-21T17:11:20.596Z,100601.17
2019-05-21T17:13:49.159Z,100602.87
2019-05-21T17:16:17.450Z,100606.70
2019-05-21T17:18:45.794Z,100598.37
2019-05-21T17:21:14.390Z,100604.61
2019-05-21T17:23:43.094Z,100606.45
2019-05-21T17:26:11.469Z,100611.61
2019-05-21T17:28:40.135Z,100603.80
2019-05-21T17:31:08.536Z,100616.11
2019-05-21T17:33:36.852Z,100618.30
2019-05-21T17:36:05.179Z,100621.94
2019-05-21T17:38:33.874Z,100620.45
2019-05-21T17:41:02.208Z,100620.81
2019-05-21T17:43:30.761Z,100622.30
2019-05-21T17:45:59.087Z,100618.81
2019-05-21T17:48:27.418Z,100627.31
2019-05-21T17:50:55.777Z,100628.36
2019-05-21T17:53:24.056Z,100629.45
2019-05-21T17:55:52.379Z,100624.25
2019-05-21T17:58:20.967Z,100623.28
2019-05-21T18:00:54.402Z,100627.48
2019-05-21T18:03:23.065Z,100630.59
2019-05-21T18:05:52.587Z,100628.13
2019-05-21T18:08:21.670Z,100627.16
2019-05-21T18:10:50.225Z,100636.45
2019-05-21T18:13:19.519Z,100637.98
2019-05-21T18:15:47.992Z,100643.49
2019-05-21T18:18:16.321Z,100649.14
2019-05-21T18:20:45.113Z,100648.48
2019-05-21T18:23:13.489Z,100647.52
2019-05-21T18:25:41.933Z,100655.52
2019-05-21T18:28:10.236Z,100657.86
2019-05-21T18:30:38.718Z,100665.55
2019-05-21T18:33:07.081Z,100676.19
2019-05-21T18:35:35.573Z,100675.73
2019-05-21T18:38:03.882Z,100663.80
2019-05-21T18:40:32.537Z,100674.75
2019-05-21T18:43:01.127Z,100675.06
2019-05-21T18:45:29.453Z,100679.89
2019-05-21T18:47:57.808Z,100683.21
2019-05-21T18:50:35.822Z,100677.41
2019-05-21T18:52:56.274Z,100686.87
2019-05-21T18:55:24.664Z,100685.05
2019-05-21T18:57:53.235Z,100689.56
2019-05-21T19:00:21.815Z,100689.05
2019-05-21T19:02:50.146Z,100697.16
2019-05-21T19:05:18.518Z,100688.58
2019-05-21T19:07:47.160Z,100697.35
2019-05-21T19:10:15.677Z,100700.98
2019-05-21T19:12:44.008Z,100697.98
2019-05-21T19:15:13.118Z,100704.76
2019-05-21T19:17:41.480Z,100712.83
2019-05-21T19:20:10.507Z,100708.70
2019-05-21T19:22:38.870Z,100710.38
2019-05-21T19:25:08.336Z,100721.33
2019-05-21T19:27:37.056Z,100718.86
2019-05-21T19:30:06.622Z,100727.61
2019-05-21T19:32:35.008Z,100726.31
2019-05-21T19:35:04.258Z,100732.11
2019-05-21T19:38:07.847Z,100737.07
2019-05-21T19:40:59.280Z,100734.26
2019-05-21T19:43:30.450Z,100743.25
2019-05-21T19:45:59.921Z,100749.69
2019-05-21T19:48:29.142Z,100750.34
2019-05-21T19:51:00.345Z,100749.66
2019-05-21T19:53:29.384Z,100751.14
2019-05-21T19:55:58.243Z,100756.78
2019-05-21T19:58:27.114Z,100758.94
2019-05-21T20:00:56.060Z,100764.08
2019-05-21T20:03:25.302Z,100762.44
2019-05-21T20:05:55.165Z,100765.23
2019-05-21T20:08:24.748Z,100762.59
2019-05-21T20:10:53.793Z,100767.26
2019-05-21T20:13:32.235Z,100767.28
2019-05-21T20:15:54.809Z,100771.63
2019-05-21T20:18:24.090Z,100772.63
2019-05-21T20:20:53.560Z,100773.97
2019-05-21T20:23:24.150Z,100777.13
2019-05-21T20:25:56.600Z,100773.31
2019-05-21T20:28:24.541Z,100774.48
2019-05-21T20:30:54.007Z,100775.98
2019-05-21T20:33:24.520Z,100776.63
2019-05-21T20:35:55.623Z,100774.66
2019-05-21T20:38:25.370Z,100785.92
2019-05-21T20:40:55.201Z,100775.03
2019-05-21T20:43:24.539Z,100776.84
2019-05-21T20:45:54.499Z,100778.84
2019-05-21T20:48:26.271Z,100783.63
2019-05-21T20:50:55.538Z,100781.64
2019-05-21T20:53:24.441Z,100772.71
2019-05-21T20:55:53.658Z,100774.54
2019-05-21T20:58:23.653Z,100779.68
2019-05-21T21:00:56.798Z,100777.67
2019-05-21T21:03:25.763Z,100772.37
2019-05-21T21:05:54.907Z,100779.02
2019-05-21T21:08:27.533Z,100778.55
2019-05-21T21:10:55.069Z,100774.09
2019-05-21T21:13:24.094Z,100781.35
2019-05-21T21:15:53.376Z,100785.83
2019-05-21T21:18:22.414Z,100785.34
2019-05-21T21:20:51.292Z,100780.36
2019-05-21T21:23:22.744Z,100779.41
2019-05-21T21:25:52.124Z,100785.04
2019-05-21T21:28:21.242Z,100787.34
2019-05-21T21:30:50.503Z,100788.01
2019-05-21T21:33:19.466Z,100792.30
2019-05-21T21:35:48.599Z,100786.19
2019-05-21T21:38:21.264Z,100789.85
2019-05-21T21:40:50.254Z,100789.34
2019-05-21T21:43:19.100Z,100789.36
2019-05-21T21:45:48.454Z,100786.72
2019-05-21T21:48:17.814Z,100788.04
2019-05-21T21:50:46.803Z,100787.88
2019-05-21T21:53:16.036Z,100782.28
2019-05-21T21:55:44.930Z,100791.20
2019-05-21T21:58:13.846Z,100789.88
2019-05-21T22:01:31.166Z,100788.55
2019-05-21T22:04:02.184Z,100791.03
2019-05-21T22:06:32.248Z,100789.05
2019-05-21T22:09:03.148Z,100793.52
2019-05-21T22:11:32.164Z,100791.51
2019-05-21T22:14:02.397Z,100799.80
2019-05-21T22:16:31.575Z,100797.30
2019-05-21T22:19:00.556Z,100798.66
2019-05-21T22:21:29.406Z,100794.52
2019-05-21T22:23:59.364Z,100801.62
2019-05-21T22:26:29.308Z,100806.27
2019-05-21T22:28:58.173Z,100803.63
2019-05-21T22:31:27.018Z,100801.80
2019-05-21T22:33:55.873Z,100803.45
2019-05-21T22:36:24.744Z,100804.27
2019-05-21T22:38:53.625Z,100808.75
2019-05-21T22:41:22.537Z,100809.90
2019-05-21T22:43:52.238Z,100808.42
2019-05-21T22:46:21.273Z,100814.03
2019-05-21T22:48:50.328Z,100805.94
2019-05-21T22:51:19.228Z,100811.39
2019-05-21T22:53:48.220Z,100808.75
2019-05-21T22:56:17.388Z,100798.48
2019-05-21T22:58:46.286Z,100797.66
2019-05-21T23:01:16.198Z,100802.45
2019-05-21T23:03:45.774Z,100803.13
2019-05-21T23:06:14.751Z,100796.68
2019-05-21T23:08:43.619Z,100802.11
2019-05-21T23:11:12.790Z,100794.53
2019-05-21T23:13:41.752Z,100790.41
2019-05-21T23:16:11.530Z,100788.41
2019-05-21T23:18:40.689Z,100789.72
2019-05-21T23:21:11.128Z,100795.01
2019-05-21T23:23:41.378Z,100793.53
2019-05-21T23:26:10.354Z,100784.75
2019-05-21T23:28:39.902Z,100788.08
2019-05-21T23:31:09.639Z,100783.63
2019-05-21T23:33:38.702Z,100785.12
2019-05-21T23:36:08.401Z,100780.15
2019-05-21T23:38:38.261Z,100783.78
2019-05-21T23:41:08.791Z,100785.75
2019-05-21T23:43:38.268Z,100786.58
2019-05-21T23:46:07.429Z,100786.44
2019-05-21T23:48:36.249Z,100786.08
2019-05-21T23:51:05.102Z,100787.57
2019-05-21T23:53:34.985Z,100787.92
2019-05-21T23:56:04.065Z,100798.66
2019-05-21T23:58:33.653Z,100797.99
